Time;durP1;ratioP1;P1;durP2;ratioP2;P2;SDS_P1;SDS_P2;PMS_P1;PMS_P2;Temp;Humidity;BMP_temperature;BMP_pressure;BME280_temperature;BME280_humidity;BME280_pressure;Samples;Min_cycle;Max_cycle;Signal;HPM_P1;HPM_P2
2022/10/01 00:00:53;;;;;;;11.68;6.28;;;8.50;98.00;;;;;;5029816;28;20033;-65
2022/10/01 00:03:20;;;;;;;8.20;5.93;;;8.40;98.00;;;;;;5030473;28;20045;-67
2022/10/01 00:05:46;;;;;;;9.48;6.07;;;8.20;98.00;;;;;;5034260;28;20393;-68
2022/10/01 00:08:15;;;;;;;8.85;5.90;;;8.20;98.00;;;;;;5033574;28;20111;-66
2022/10/01 00:10:42;;;;;;;8.50;5.57;;;8.10;98.00;;;;;;5032868;28;20033;-66
2022/10/01 00:13:09;;;;;;;8.48;5.70;;;8.00;97.00;;;;;;5031559;28;20036;-66
2022/10/01 00:15:38;;;;;;;8.68;4.82;;;8.00;96.50;;;;;;5022579;28;20068;-66
2022/10/01 00:18:04;;;;;;;8.30;4.78;;;8.00;96.10;;;;;;5031362;28;20113;-66
2022/10/01 00:20:30;;;;;;;8.85;5.20;;;8.00;96.20;;;;;;5033599;28;20109;-66
2022/10/01 00:22:55;;;;;;;8.10;5.03;;;8.10;96.30;;;;;;5033279;28;20056;-66
2022/10/01 00:25:24;;;;;;;8.15;5.40;;;8.00;96.40;;;;;;5034466;28;20034;-66
2022/10/01 00:27:50;;;;;;;9.00;5.57;;;8.00;97.00;;;;;;5035171;28;20026;-65
2022/10/01 00:30:20;;;;;;;7.28;5.20;;;8.00;97.20;;;;;;5036790;28;20191;-65
2022/10/01 00:32:46;;;;;;;7.78;5.63;;;8.00;97.90;;;;;;5036954;28;20319;-65
2022/10/01 00:35:13;;;;;;;9.82;5.65;;;7.90;97.40;;;;;;5038206;28;20026;-66
2022/10/01 00:37:38;;;;;;;6.88;5.13;;;7.90;97.70;;;;;;5034661;28;20316;-66
2022/10/01 00:40:05;;;;;;;7.88;4.88;;;7.90;97.90;;;;;;5037157;28;20022;-65
2022/10/01 00:42:31;;;;;;;6.95;4.22;;;7.90;98.00;;;;;;5035458;28;20045;-66
2022/10/01 00:45:01;;;;;;;5.85;3.92;;;8.00;98.00;;;;;;5037726;28;20013;-66
2022/10/01 00:47:35;;;;;;;6.75;3.67;;;8.10;98.00;;;;;;5032521;28;20034;-66
2022/10/01 00:50:15;;;;;;;7.45;3.40;;;8.10;98.00;;;;;;5023150;28;20026;-65
2022/10/01 00:52:44;;;;;;;6.13;3.47;;;8.10;98.00;;;;;;5034867;28;20530;-66
2022/10/01 00:55:14;;;;;;;5.15;2.97;;;8.20;98.00;;;;;;5035637;28;20112;-66
2022/10/01 00:57:42;;;;;;;4.97;2.97;;;8.40;98.00;;;;;;5030878;28;20021;-65
2022/10/01 01:00:12;;;;;;;6.00;3.05;;;8.40;98.00;;;;;;5038206;28;20029;-65
2022/10/01 01:02:37;;;;;;;5.32;3.10;;;8.40;98.00;;;;;;5036272;28;20021;-66
2022/10/01 01:05:05;;;;;;;5.25;2.92;;;8.30;98.00;;;;;;5037082;28;20091;-66
2022/10/01 01:07:32;;;;;;;6.95;3.05;;;8.20;98.00;;;;;;5034458;28;20029;-65
2022/10/01 01:09:58;;;;;;;7.78;3.10;;;8.20;98.00;;;;;;5034041;28;20083;-65
2022/10/01 01:12:33;;;;;;;4.45;2.70;;;8.20;98.00;;;;;;5031941;28;20050;-65
2022/10/01 01:15:06;;;;;;;;;;;8.20;98.00;;;;;;5018487;28;20037;-66
2022/10/01 01:18:01;;;;;;;3.97;2.30;;;8.20;98.00;;;;;;5031897;28;19916;-66
2022/10/01 01:20:36;;;;;;;;;;;8.50;98.00;;;;;;5034975;28;20056;-66
2022/10/01 01:23:14;;;;;;;5.25;2.50;;;8.60;98.00;;;;;;5034202;28;19963;-66
2022/10/01 01:26:03;;;;;;;5.60;2.63;;;8.80;98.00;;;;;;5024549;28;20056;-65
2022/10/01 01:28:36;;;;;;;3.55;2.00;;;8.80;98.00;;;;;;5039862;28;20025;-66
2022/10/01 01:31:12;;;;;;;4.22;2.13;;;8.80;98.00;;;;;;5037508;28;20394;-65
2022/10/01 01:33:42;;;;;;;5.05;2.55;;;8.80;98.00;;;;;;5035852;28;20030;-66
2022/10/01 01:36:15;;;;;;;5.53;2.40;;;8.90;98.00;;;;;;5031040;28;20053;-65
2022/10/01 01:38:59;;;;;;;4.00;2.20;;;9.10;98.00;;;;;;5028446;28;20369;-66
2022/10/01 01:41:28;;;;;;;4.00;2.25;;;9.10;97.90;;;;;;5034394;28;20414;-65
2022/10/01 01:43:59;;;;;;;4.45;2.22;;;9.10;97.70;;;;;;5036704;28;20410;-65
2022/10/01 01:46:30;;;;;;;3.88;2.17;;;9.30;97.30;;;;;;5032221;28;20374;-66
2022/10/01 01:49:03;;;;;;;5.82;2.17;;;9.30;97.40;;;;;;5027284;28;20026;-66
2022/10/01 01:51:51;;;;;;;4.47;2.15;;;9.10;97.40;;;;;;5030681;28;20026;-65
2022/10/01 01:54:19;;;;;;;3.15;1.70;;;9.10;97.50;;;;;;5026999;28;20335;-66
2022/10/01 01:56:45;;;;;;;3.30;1.60;;;9.20;97.20;;;;;;5032745;28;20116;-66
2022/10/01 01:59:12;;;;;;;5.63;2.10;;;9.30;96.70;;;;;;5026369;28;20035;-65
2022/10/01 02:01:44;;;;;;;3.70;1.98;;;9.40;96.30;;;;;;5036365;28;20029;-66
2022/10/01 02:04:34;;;;;;;3.63;1.98;;;9.50;96.00;;;;;;5031792;28;20381;-65
2022/10/01 02:07:37;;;;;;;3.65;1.85;;;9.50;95.70;;;;;;5032088;28;20014;-66
2022/10/01 02:10:28;;;;;;;3.20;1.90;;;9.50;96.10;;;;;;5026899;28;20106;-65
2022/10/01 02:13:28;;;;;;;3.90;2.00;;;9.40;96.10;;;;;;5016744;28;20030;-66
2022/10/01 02:16:03;;;;;;;3.92;2.15;;;9.30;96.50;;;;;;5031448;28;20037;-65
2022/10/01 02:18:32;;;;;;;3.15;1.83;;;9.20;97.00;;;;;;5034610;28;20037;-66
2022/10/01 02:21:26;;;;;;;3.83;2.00;;;9.10;97.00;;;;;;5034321;28;20021;-66
2022/10/01 02:24:00;;;;;;;3.83;1.92;;;9.20;96.80;;;;;;5030881;28;20052;-65
2022/10/01 02:26:28;;;;;;;3.83;2.17;;;9.10;97.20;;;;;;5031282;28;20029;-66
2022/10/01 02:29:00;;;;;;;5.43;2.05;;;9.10;97.00;;;;;;5035413;28;20041;-66
2022/10/01 02:31:29;;;;;;;4.38;2.40;;;9.20;96.70;;;;;;5034470;28;20422;-65
2022/10/01 02:33:57;;;;;;;3.67;2.00;;;9.20;96.90;;;;;;5031327;28;20022;-65
2022/10/01 02:36:25;;;;;;;4.25;2.05;;;9.20;96.60;;;;;;5029840;28;20119;-66
2022/10/01 02:38:54;;;;;;;4.05;2.00;;;9.10;97.10;;;;;;5034346;28;20025;-65
2022/10/01 02:41:25;;;;;;;3.92;2.05;;;9.10;97.30;;;;;;5033702;28;20356;-65
2022/10/01 02:44:06;;;;;;;5.50;2.03;;;8.90;97.90;;;;;;5027099;28;20026;-66
2022/10/01 02:46:56;;;;;;;3.83;2.20;;;9.00;97.90;;;;;;5031458;28;20021;-66
2022/10/01 02:49:21;;;;;;;3.97;1.90;;;8.90;98.00;;;;;;5036036;28;20079;-65
2022/10/01 02:52:15;;;;;;;5.07;2.17;;;9.00;97.80;;;;;;5032735;28;20022;-65
2022/10/01 02:55:00;;;;;;;5.35;1.92;;;9.00;97.50;;;;;;5031208;28;20422;-65
2022/10/01 02:57:27;;;;;;;3.17;1.60;;;9.10;97.40;;;;;;5029028;28;20037;-65
2022/10/01 02:59:58;;;;;;;4.30;1.70;;;9.00;97.70;;;;;;5045015;28;20091;-67
2022/10/01 03:02:30;;;;;;;4.07;1.95;;;8.90;98.00;;;;;;5027070;28;20047;-66
2022/10/01 03:04:56;;;;;;;3.38;1.90;;;8.70;98.00;;;;;;5032883;28;20492;-67
2022/10/01 03:07:23;;;;;;;4.40;2.13;;;8.70;98.00;;;;;;5033146;28;20030;-66
2022/10/01 03:09:49;;;;;;;3.60;1.60;;;8.80;97.90;;;;;;5034793;28;20490;-66
2022/10/01 03:12:16;;;;;;;4.43;1.90;;;8.90;97.70;;;;;;5030212;28;20068;-66
2022/10/01 03:14:43;;;;;;;3.53;1.92;;;8.90;97.80;;;;;;5032402;28;20029;-66
2022/10/01 03:17:09;;;;;;;5.63;2.22;;;8.80;98.00;;;;;;5034421;28;20377;-66
2022/10/01 03:19:35;;;;;;;5.65;2.80;;;8.60;98.00;;;;;;5035838;28;20026;-66
2022/10/01 03:22:01;;;;;;;5.00;2.65;;;8.50;98.00;;;;;;5032793;28;20110;-66
2022/10/01 03:24:27;;;;;;;6.38;3.22;;;8.60;98.00;;;;;;5030758;28;20300;-66
2022/10/01 03:26:55;;;;;;;21.73;12.23;;;8.70;98.00;;;;;;5032866;28;20036;-66
2022/10/01 03:29:20;;;;;;;15.95;7.95;;;8.70;98.00;;;;;;5034762;28;20036;-66
2022/10/01 03:31:46;;;;;;;5.47;3.10;;;8.70;97.90;;;;;;5033759;28;20026;-66
2022/10/01 03:34:12;;;;;;;8.10;4.22;;;8.60;98.00;;;;;;5032250;28;20033;-66
2022/10/01 03:36:38;;;;;;;3.15;1.65;;;8.60;97.40;;;;;;5033768;28;20099;-66
2022/10/01 03:39:03;;;;;;;3.47;1.80;;;8.80;96.20;;;;;;5026889;28;20037;-66
2022/10/01 03:41:29;;;;;;;3.42;1.90;;;8.90;96.00;;;;;;5019350;28;20017;-66
2022/10/01 03:44:00;;;;;;;5.25;2.30;;;8.80;96.50;;;;;;5029271;28;20458;-66
2022/10/01 03:46:26;;;;;;;8.55;5.10;;;8.60;97.30;;;;;;5034669;28;20341;-66
2022/10/01 03:48:52;;;;;;;4.97;2.50;;;8.50;97.70;;;;;;5033781;28;20028;-66
2022/10/01 03:51:21;;;;;;;10.20;6.57;;;8.50;97.40;;;;;;5034177;28;20029;-66
2022/10/01 03:53:46;;;;;;;7.68;4.40;;;8.50;96.70;;;;;;5030713;28;20022;-66
2022/10/01 03:56:13;;;;;;;5.30;3.20;;;8.70;96.00;;;;;;5033683;28;20033;-66
2022/10/01 03:58:39;;;;;;;2.80;1.55;;;8.70;95.70;;;;;;5033419;28;20037;-65
2022/10/01 04:01:04;;;;;;;2.75;1.60;;;8.90;94.40;;;;;;5037546;28;20030;-66
2022/10/01 04:03:30;;;;;;;3.25;1.83;;;9.00;93.70;;;;;;5033950;28;20410;-66
2022/10/01 04:05:56;;;;;;;11.95;9.35;;;9.00;93.80;;;;;;5038202;28;20036;-66
2022/10/01 04:08:22;;;;;;;4.88;2.55;;;8.80;94.50;;;;;;5034288;28;20017;-65
2022/10/01 04:10:48;;;;;;;2.58;1.50;;;9.00;93.70;;;;;;5037241;28;20393;-66
2022/10/01 04:13:14;;;;;;;3.15;1.58;;;9.00;92.80;;;;;;5029322;28;20128;-66
2022/10/01 04:15:40;;;;;;;2.65;1.40;;;9.00;93.80;;;;;;5038297;28;20407;-65
2022/10/01 04:18:07;;;;;;;2.50;1.30;;;9.00;92.60;;;;;;5036017;28;20109;-65
2022/10/01 04:20:34;;;;;;;3.90;1.38;;;9.30;91.20;;;;;;5036550;28;20033;-66
2022/10/01 04:23:02;;;;;;;2.42;1.20;;;9.40;91.60;;;;;;5035097;28;20115;-65
2022/10/01 04:25:29;;;;;;;2.70;1.25;;;9.40;90.70;;;;;;5037827;28;20025;-66
2022/10/01 04:27:56;;;;;;;2.45;1.15;;;9.50;90.60;;;;;;5036493;28;20087;-65
2022/10/01 04:30:22;;;;;;;2.72;1.30;;;9.60;90.00;;;;;;5038448;28;20041;-66
2022/10/01 04:32:48;;;;;;;4.95;1.40;;;9.60;90.10;;;;;;5034317;28;20112;-66
2022/10/01 04:35:14;;;;;;;2.75;1.30;;;9.60;89.80;;;;;;5037798;28;20108;-66
2022/10/01 04:37:40;;;;;;;3.95;1.35;;;9.70;89.70;;;;;;5035880;28;20556;-65
2022/10/01 04:40:06;;;;;;;3.38;1.40;;;9.70;89.80;;;;;;5036632;28;20113;-65
2022/10/01 04:42:32;;;;;;;3.08;1.38;;;9.70;89.40;;;;;;5033289;28;20159;-65
2022/10/01 04:44:57;;;;;;;2.85;1.30;;;9.70;90.30;;;;;;5038710;28;20407;-65
2022/10/01 04:47:23;;;;;;;3.17;1.45;;;9.60;90.20;;;;;;5037559;28;20035;-65
2022/10/01 04:49:49;;;;;;;5.50;1.48;;;9.60;90.50;;;;;;5037184;28;20048;-66
2022/10/01 04:52:14;;;;;;;4.68;2.08;;;9.60;90.20;;;;;;5033913;28;20108;-65
2022/10/01 04:54:40;;;;;;;4.15;1.60;;;9.70;89.80;;;;;;5037363;28;20425;-65
2022/10/01 04:57:06;;;;;;;3.47;1.33;;;9.70;90.30;;;;;;5036139;28;20430;-66
2022/10/01 04:59:32;;;;;;;3.75;1.52;;;9.80;90.00;;;;;;5037612;28;20068;-66
2022/10/01 05:01:58;;;;;;;3.97;1.70;;;9.80;90.00;;;;;;5033554;28;20314;-65
2022/10/01 05:04:23;;;;;;;3.95;1.48;;;9.80;90.20;;;;;;5036777;28;20024;-66
2022/10/01 05:06:49;;;;;;;3.67;1.45;;;9.80;90.20;;;;;;5036350;28;20371;-66
2022/10/01 05:09:15;;;;;;;3.90;1.50;;;9.80;90.10;;;;;;5033519;28;20038;-65
2022/10/01 05:11:41;;;;;;;2.80;1.40;;;9.90;89.90;;;;;;5047472;28;20032;-65
2022/10/01 05:14:07;;;;;;;4.05;1.50;;;10.00;89.40;;;;;;5037180;28;20422;-66
2022/10/01 05:16:33;;;;;;;3.40;1.33;;;10.10;89.40;;;;;;5022564;28;20022;-66
2022/10/01 05:19:01;;;;;;;4.20;1.65;;;10.10;89.10;;;;;;5034727;28;20052;-66
2022/10/01 05:21:27;;;;;;;3.70;1.60;;;10.10;89.10;;;;;;5024518;28;20073;-66
2022/10/01 05:23:53;;;;;;;3.28;1.48;;;10.20;88.70;;;;;;5030647;28;20406;-66
2022/10/01 05:26:19;;;;;;;3.42;1.50;;;10.20;89.00;;;;;;5035779;28;20036;-65
2022/10/01 05:28:44;;;;;;;2.88;1.45;;;10.10;89.60;;;;;;5035163;28;20033;-66
2022/10/01 05:31:11;;;;;;;3.58;1.65;;;10.10;89.50;;;;;;5028487;28;20425;-65
2022/10/01 05:33:37;;;;;;;3.50;1.50;;;10.10;89.50;;;;;;5044982;28;20105;-66
2022/10/01 05:36:05;;;;;;;3.75;1.48;;;10.10;89.40;;;;;;5035019;28;20117;-66
2022/10/01 05:38:37;;;;;;;4.10;1.90;;;10.00;89.90;;;;;;5035840;28;20104;-66
2022/10/01 05:41:04;;;;;;;3.80;1.88;;;10.10;89.50;;;;;;5033271;28;20022;-65
2022/10/01 05:43:30;;;;;;;4.03;1.80;;;10.10;89.70;;;;;;5034033;28;20025;-65
2022/10/01 05:46:00;;;;;;;2.95;1.52;;;10.10;89.00;;;;;;5021591;28;20303;-65
2022/10/01 05:48:26;;;;;;;4.75;1.80;;;10.20;89.40;;;;;;5025762;28;20055;-64
2022/10/01 05:50:53;;;;;;;3.85;1.67;;;10.20;89.20;;;;;;5033888;28;20104;-64
2022/10/01 05:53:22;;;;;;;5.65;2.03;;;10.20;88.70;;;;;;5026785;28;20034;-67
2022/10/01 05:55:48;;;;;;;4.00;1.50;;;10.20;89.20;;;;;;5035420;28;20030;-67
2022/10/01 05:58:13;;;;;;;3.60;1.92;;;10.20;89.30;;;;;;5033999;28;20052;-66
2022/10/01 06:00:41;;;;;;;3.50;1.85;;;10.20;89.10;;;;;;5023197;28;20029;-65
2022/10/01 06:03:07;;;;;;;4.68;2.10;;;10.30;88.80;;;;;;5022638;28;20025;-65
2022/10/01 06:05:34;;;;;;;8.90;4.50;;;10.30;88.80;;;;;;5030147;28;20026;-66
2022/10/01 06:08:03;;;;;;;5.15;2.17;;;10.30;88.60;;;;;;5029307;28;20036;-65
2022/10/01 06:10:29;;;;;;;5.57;1.88;;;10.30;88.60;;;;;;5030487;28;20064;-65
2022/10/01 06:13:00;;;;;;;6.93;3.15;;;10.30;88.50;;;;;;5016202;28;20435;-65
2022/10/01 06:15:27;;;;;;;4.60;2.30;;;10.40;88.50;;;;;;5017888;28;20331;-65
2022/10/01 06:17:52;;;;;;;4.75;1.95;;;10.50;88.00;;;;;;5035263;28;20100;-65
2022/10/01 06:20:19;;;;;;;3.65;1.77;;;10.50;88.00;;;;;;5031203;28;20113;-66
2022/10/01 06:22:53;;;;;;;3.38;1.63;;;10.50;87.50;;;;;;5033891;28;20029;-66
2022/10/01 06:25:20;;;;;;;4.90;2.10;;;10.60;87.70;;;;;;5031607;28;20060;-66
2022/10/01 06:27:56;;;;;;;8.52;4.57;;;10.50;89.30;;;;;;5036239;28;20029;-65
2022/10/01 06:30:28;;;;;;;6.00;2.42;;;10.30;90.60;;;;;;5033605;28;20030;-65
2022/10/01 06:33:04;;;;;;;4.82;2.45;;;10.10;92.00;;;;;;5034099;28;20095;-66
2022/10/01 06:35:30;;;;;;;3.85;2.10;;;9.90;92.40;;;;;;5035240;28;20300;-66
2022/10/01 06:37:57;;;;;;;7.88;3.65;;;9.70;93.50;;;;;;5035197;28;20053;-66
2022/10/01 06:40:23;;;;;;;5.75;2.50;;;9.70;93.60;;;;;;5029594;28;20078;-66
2022/10/01 06:42:50;;;;;;;4.88;2.55;;;9.60;94.30;;;;;;5030131;28;20022;-64
2022/10/01 06:45:16;;;;;;;4.47;2.20;;;9.60;92.80;;;;;;5033490;28;20026;-66
2022/10/01 06:47:43;;;;;;;5.60;2.20;;;9.60;94.10;;;;;;5035792;28;20410;-66
2022/10/01 06:50:09;;;;;;;5.60;3.03;;;9.50;94.20;;;;;;5033731;28;20087;-66
2022/10/01 06:52:47;;;;;;;4.88;2.00;;;9.60;94.00;;;;;;5034081;28;20104;-66
2022/10/01 06:55:15;;;;;;;3.90;2.20;;;9.60;94.30;;;;;;5033486;28;20323;-66
2022/10/01 06:57:40;;;;;;;6.80;1.90;;;9.60;94.70;;;;;;5034725;28;20104;-66
2022/10/01 07:00:07;;;;;;;4.25;1.90;;;9.60;93.80;;;;;;5030593;28;20185;-66
2022/10/01 07:02:32;;;;;;;3.53;1.60;;;9.70;92.60;;;;;;5035380;28;20034;-66
2022/10/01 07:04:58;;;;;;;4.20;1.77;;;9.80;91.70;;;;;;5035078;28;20032;-66
2022/10/01 07:07:28;;;;;;;3.70;1.88;;;9.90;92.20;;;;;;5035921;28;20411;-66
2022/10/01 07:09:54;;;;;;;3.80;1.90;;;9.80;91.70;;;;;;5031916;28;20113;-66
2022/10/01 07:12:19;;;;;;;5.85;2.70;;;9.80;92.50;;;;;;5034970;28;20397;-66
2022/10/01 07:14:45;;;;;;;6.05;2.85;;;9.80;93.40;;;;;;5034893;28;20104;-66
2022/10/01 07:17:11;;;;;;;6.13;2.70;;;9.80;94.40;;;;;;5033982;28;20334;-66
2022/10/01 07:19:36;;;;;;;4.50;1.70;;;9.80;94.10;;;;;;5031370;28;20109;-66
2022/10/01 07:22:02;;;;;;;5.43;1.88;;;9.90;91.60;;;;;;5035662;28;20046;-66
2022/10/01 07:24:28;;;;;;;3.85;1.50;;;10.10;91.60;;;;;;5032134;28;20347;-66
2022/10/01 07:26:54;;;;;;;3.58;1.75;;;10.20;89.80;;;;;;5033244;28;20411;-65
2022/10/01 07:29:22;;;;;;;6.32;2.47;;;10.30;90.00;;;;;;5030851;28;20021;-65
2022/10/01 07:31:49;;;;;;;7.38;1.67;;;10.40;89.60;;;;;;5035572;28;20362;-66
2022/10/01 07:34:15;;;;;;;3.25;1.60;;;10.50;89.90;;;;;;5035043;28;20022;-65
2022/10/01 07:36:43;;;;;;;2.70;1.35;;;10.50;89.60;;;;;;5037290;28;20052;-65
2022/10/01 07:39:08;;;;;;;3.60;1.50;;;10.50;89.00;;;;;;5035906;28;20034;-66
2022/10/01 07:41:34;;;;;;;3.42;1.65;;;10.60;89.00;;;;;;5036912;28;20030;-65
2022/10/01 07:44:02;;;;;;;2.47;1.25;;;10.60;89.20;;;;;;5038154;28;20026;-65
2022/10/01 07:46:27;;;;;;;2.67;1.30;;;10.60;90.00;;;;;;5033799;28;20033;-65
2022/10/01 07:48:53;;;;;;;2.65;1.30;;;10.60;89.30;;;;;;5031706;28;20223;-65
2022/10/01 07:51:19;;;;;;;2.30;1.00;;;10.60;90.20;;;;;;5035879;28;20064;-65
2022/10/01 07:53:45;;;;;;;2.88;1.30;;;10.60;89.70;;;;;;5036149;28;20029;-65
2022/10/01 07:56:11;;;;;;;3.22;1.40;;;10.70;89.30;;;;;;5037723;28;20049;-64
2022/10/01 07:58:36;;;;;;;3.60;1.30;;;10.70;89.50;;;;;;5039591;28;20029;-65
2022/10/01 08:01:06;;;;;;;2.30;1.00;;;10.70;89.50;;;;;;5031700;28;21507;-66
2022/10/01 08:03:32;;;;;;;4.15;1.30;;;10.80;89.50;;;;;;5034660;28;20055;-65
2022/10/01 08:05:58;;;;;;;3.85;1.40;;;10.80;90.00;;;;;;5034102;28;20021;-65
2022/10/01 08:08:23;;;;;;;3.25;1.40;;;10.80;89.80;;;;;;5025481;28;20064;-65
2022/10/01 08:10:49;;;;;;;2.42;1.33;;;10.80;90.40;;;;;;5030152;28;20022;-65
2022/10/01 08:13:16;;;;;;;2.20;1.30;;;10.70;91.30;;;;;;5025775;28;20029;-65
2022/10/01 08:15:44;;;;;;;4.68;1.25;;;10.70;91.10;;;;;;5029364;28;20029;-65
2022/10/01 08:18:10;;;;;;;2.38;1.20;;;10.70;91.30;;;;;;5035708;28;20026;-66
2022/10/01 08:20:38;;;;;;;3.70;1.23;;;10.70;91.40;;;;;;5035430;28;20041;-66
2022/10/01 08:23:05;;;;;;;3.05;1.40;;;10.70;91.20;;;;;;5033560;28;20017;-66
2022/10/01 08:25:32;;;;;;;4.10;1.20;;;10.70;91.90;;;;;;5033685;28;20017;-65
2022/10/01 08:27:59;;;;;;;4.43;1.48;;;10.70;91.30;;;;;;5038516;28;20018;-65
2022/10/01 08:30:25;;;;;;;4.32;1.20;;;10.80;91.10;;;;;;5031061;28;20056;-65
2022/10/01 08:32:58;;;;;;;2.10;1.30;;;10.80;91.50;;;;;;5034856;28;20369;-65
2022/10/01 08:35:26;;;;;;;2.42;1.10;;;10.80;91.10;;;;;;5036594;28;20021;-65
2022/10/01 08:37:54;;;;;;;2.80;1.20;;;10.80;90.90;;;;;;5027733;28;20510;-65
2022/10/01 08:40:20;;;;;;;2.30;1.17;;;10.80;91.20;;;;;;5031103;28;20113;-65
2022/10/01 08:42:49;;;;;;;4.05;1.63;;;10.80;91.20;;;;;;5027349;28;20423;-63
2022/10/01 08:45:33;;;;;;;3.28;1.30;;;10.80;91.20;;;;;;5037357;28;20037;-64
2022/10/01 08:48:24;;;;;;;;;;;10.70;91.60;;;;;;5048065;28;20053;-66
2022/10/01 08:51:24;;;;;;;3.53;1.65;;;10.80;91.80;;;;;;5039945;28;19913;-67
2022/10/01 08:53:55;;;;;;;4.18;1.60;;;10.90;91.50;;;;;;5037797;28;20041;-66
2022/10/01 08:56:30;;;;;;;4.35;2.15;;;10.90;91.30;;;;;;5036717;28;20057;-65
2022/10/01 08:58:59;;;;;;;5.47;2.47;;;11.00;90.90;;;;;;5031478;28;20038;-66
2022/10/01 09:01:26;;;;;;;2.05;1.20;;;11.00;91.30;;;;;;5028902;28;20119;-65
2022/10/01 09:03:52;;;;;;;3.30;1.02;;;11.10;90.90;;;;;;5031627;28;20026;-65
2022/10/01 09:06:28;;;;;;;3.17;1.52;;;11.20;91.10;;;;;;5026196;28;20565;-65
2022/10/01 09:09:05;;;;;;;1.77;1.10;;;11.10;90.80;;;;;;5034796;28;20028;-65
2022/10/01 09:11:40;;;;;;;3.50;1.38;;;11.20;91.20;;;;;;5032330;28;20326;-65
2022/10/01 09:14:12;;;;;;;2.83;1.13;;;11.30;90.60;;;;;;5039753;28;20056;-65
2022/10/01 09:16:53;;;;;;;4.53;1.63;;;11.20;90.10;;;;;;5027224;28;20033;-65
2022/10/01 09:19:40;;;;;;;2.72;1.25;;;11.10;90.30;;;;;;5033252;28;20091;-64
2022/10/01 09:22:40;;;;;;;2.17;1.10;;;11.20;90.80;;;;;;5034463;28;20041;-65
2022/10/01 09:25:21;;;;;;;3.25;1.25;;;11.10;91.70;;;;;;5022642;28;20033;-66
2022/10/01 09:27:47;;;;;;;4.30;1.17;;;11.00;92.30;;;;;;5031562;28;20013;-64
2022/10/01 09:30:20;;;;;;;3.05;1.00;;;11.00;91.50;;;;;;5035899;28;20501;-66
2022/10/01 09:33:09;;;;;;;2.30;1.00;;;11.00;91.50;;;;;;5034081;28;20035;-64
2022/10/01 09:35:55;;;;;;;2.67;1.30;;;11.10;91.30;;;;;;5035426;28;20345;-65
2022/10/01 09:38:40;;;;;;;2.55;1.20;;;11.20;91.40;;;;;;5034781;28;20029;-65
2022/10/01 09:41:07;;;;;;;2.67;1.00;;;11.30;91.00;;;;;;5033656;28;20021;-65
2022/10/01 09:43:36;;;;;;;2.72;1.20;;;11.40;90.30;;;;;;5030433;28;20048;-65
2022/10/01 09:46:12;;;;;;;2.50;1.27;;;11.40;90.20;;;;;;5034336;28;20100;-65
2022/10/01 09:48:45;;;;;;;3.35;1.10;;;11.40;90.20;;;;;;5031875;28;20037;-65
2022/10/01 09:51:18;;;;;;;1.83;0.98;;;11.40;90.30;;;;;;5034347;28;20025;-65
2022/10/01 09:54:00;;;;;;;5.97;1.00;;;11.40;90.80;;;;;;5034650;28;20033;-65
2022/10/01 09:56:33;;;;;;;1.80;0.90;;;11.40;91.70;;;;;;5031752;28;20029;-66
2022/10/01 09:59:07;;;;;;;2.30;1.10;;;11.40;92.70;;;;;;5029078;28;20018;-65
2022/10/01 10:01:46;;;;;;;2.63;1.10;;;11.20;93.10;;;;;;5030873;28;20061;-65
2022/10/01 10:04:24;;;;;;;3.65;1.02;;;11.20;93.80;;;;;;5031589;28;20033;-65
2022/10/01 10:07:00;;;;;;;2.58;1.05;;;11.20;94.50;;;;;;5034291;28;20021;-64
2022/10/01 10:09:30;;;;;;;3.67;1.23;;;11.10;94.80;;;;;;5030992;28;20105;-66
2022/10/01 10:11:58;;;;;;;2.65;1.08;;;10.90;95.60;;;;;;5031363;28;20021;-64
2022/10/01 10:14:36;;;;;;;2.53;1.10;;;11.00;95.70;;;;;;5032828;28;20079;-65
2022/10/01 10:17:10;;;;;;;3.13;1.08;;;11.10;95.20;;;;;;5044435;28;20017;-64
2022/10/01 10:19:37;;;;;;;3.42;1.95;;;11.20;95.40;;;;;;5036973;28;20040;-63
2022/10/01 10:22:22;;;;;;;2.35;1.20;;;11.10;96.20;;;;;;5045353;28;20021;-65
2022/10/01 10:24:48;;;;;;;;;;;10.80;97.60;;;;;;5032935;28;20101;-64
2022/10/01 10:27:25;;;;;;;2.10;1.00;;;10.70;98.00;;;;;;5036876;28;20288;-64
2022/10/01 10:30:13;;;;;;;2.97;1.40;;;10.50;98.00;;;;;;5032876;28;20321;-64
2022/10/01 10:32:40;;;;;;;2.72;1.23;;;10.50;98.00;;;;;;5028326;28;20088;-66
2022/10/01 10:35:14;;;;;;;1.50;1.00;;;10.60;98.00;;;;;;5031593;28;20049;-65
2022/10/01 10:37:51;;;;;;;2.80;1.10;;;10.60;98.00;;;;;;5028743;28;20041;-65
2022/10/01 10:40:20;;;;;;;2.83;0.82;;;10.70;98.00;;;;;;5029377;28;20037;-65
2022/10/01 10:42:56;;;;;;;3.05;1.10;;;11.00;98.00;;;;;;5033687;28;20022;-64
2022/10/01 10:45:37;;;;;;;3.40;0.90;;;11.10;98.00;;;;;;5025047;28;20108;-66
2022/10/01 10:48:10;;;;;;;4.00;1.08;;;11.10;98.00;;;;;;5025744;28;20021;-65
2022/10/01 10:50:38;;;;;;;2.75;1.25;;;11.10;98.00;;;;;;5028036;28;20084;-65
2022/10/01 10:53:40;;;;;;;2.65;1.10;;;11.20;98.00;;;;;;5033332;28;20529;-66
2022/10/01 10:56:21;;;;;;;5.07;0.95;;;11.30;98.00;;;;;;5026069;28;20037;-66
2022/10/01 10:58:47;;;;;;;3.30;1.48;;;11.30;98.00;;;;;;5024495;28;20025;-66
2022/10/01 11:01:27;;;;;;;3.28;1.02;;;11.30;98.00;;;;;;5025749;28;20030;-67
2022/10/01 11:04:00;;;;;;;2.90;1.40;;;11.30;98.00;;;;;;5029535;28;20422;-66
2022/10/01 11:06:37;;;;;;;6.07;2.85;;;11.50;98.00;;;;;;5029514;28;20415;-66
2022/10/01 11:09:19;;;;;;;4.45;1.70;;;11.60;98.00;;;;;;5036115;28;20021;-65
2022/10/01 11:12:28;;;;;;;2.13;1.00;;;11.70;98.00;;;;;;5032638;28;20025;-65
2022/10/01 11:15:16;;;;;;;1.73;0.93;;;11.60;98.00;;;;;;5024606;28;20378;-64
2022/10/01 11:17:49;;;;;;;1.40;0.82;;;11.40;98.00;;;;;;5033992;28;20033;-65
2022/10/01 11:20:39;;;;;;;1.77;1.00;;;11.40;98.00;;;;;;5028392;28;20060;-64
2022/10/01 11:23:35;;;;;;;1.13;0.70;;;11.40;98.00;;;;;;5032691;28;20049;-65
2022/10/01 11:26:49;;;;;;;3.00;0.88;;;11.60;98.00;;;;;;5033532;28;20022;-65
2022/10/01 11:30:17;;;;;;;1.95;1.05;;;11.80;98.00;;;;;;5004612;28;20037;-65
2022/10/01 11:32:55;;;;;;;1.25;0.70;;;11.90;98.00;;;;;;5022370;28;20094;-64
2022/10/01 11:35:31;;;;;;;2.08;0.90;;;11.70;98.00;;;;;;5034067;28;20040;-64
2022/10/01 11:38:19;;;;;;;1.92;0.90;;;11.60;98.00;;;;;;5034505;28;20030;-65
2022/10/01 11:41:06;;;;;;;1.42;0.80;;;11.60;98.00;;;;;;5032518;28;20407;-64
2022/10/01 11:44:17;;;;;;;1.45;0.90;;;11.60;98.00;;;;;;5031273;28;20033;-64
2022/10/01 11:47:27;;;;;;;1.40;0.80;;;11.70;98.00;;;;;;5026292;28;20038;-64
2022/10/01 11:50:04;;;;;;;1.77;0.85;;;11.70;98.00;;;;;;5029501;28;20048;-64
2022/10/01 11:52:55;;;;;;;2.40;0.90;;;11.70;98.00;;;;;;5032669;28;20128;-64
2022/10/01 11:58:51;;;;;;;3.75;2.03;;;11.80;98.00;;;;;;5030732;28;20064;-64
2022/10/01 12:01:27;;;;;;;2.58;1.20;;;11.80;98.00;;;;;;5036122;28;20327;-65
2022/10/01 12:03:53;;;;;;;1.80;0.80;;;11.90;98.00;;;;;;5033835;28;20028;-63
2022/10/01 12:07:03;;;;;;;5.80;1.45;;;11.90;98.00;;;;;;5043787;28;20030;-64
2022/10/01 12:09:39;;;;;;;3.15;1.00;;;12.00;98.00;;;;;;5031738;28;20053;-64
2022/10/01 12:12:22;;;;;;;2.33;0.90;;;12.00;98.00;;;;;;5029651;28;20322;-65
2022/10/01 12:15:25;;;;;;;2.20;0.90;;;12.20;98.00;;;;;;5024872;28;20022;-64
2022/10/01 12:18:16;;;;;;;1.90;1.10;;;12.30;98.00;;;;;;5032703;28;20033;-65
2022/10/01 12:20:54;;;;;;;3.22;1.50;;;12.40;98.00;;;;;;5032159;28;20422;-65
2022/10/01 12:23:47;;;;;;;6.97;3.05;;;12.40;98.00;;;;;;5036716;28;20037;-64
2022/10/01 12:26:27;;;;;;;4.82;2.60;;;12.40;97.90;;;;;;5033010;28;20037;-64
2022/10/01 12:28:56;;;;;;;5.43;2.90;;;12.40;98.00;;;;;;5029226;28;20060;-65
2022/10/01 12:32:15;;;;;;;4.68;2.55;;;12.40;98.00;;;;;;5023626;28;20037;-65
2022/10/01 12:34:57;;;;;;;5.38;2.97;;;12.40;98.00;;;;;;5005924;28;20069;-65
2022/10/01 12:37:43;;;;;;;3.92;1.85;;;12.40;98.00;;;;;;5027938;28;20037;-65
2022/10/01 12:40:25;;;;;;;4.93;2.72;;;12.30;98.00;;;;;;5032800;28;20026;-65
2022/10/01 12:43:24;;;;;;;2.30;1.30;;;12.40;98.00;;;;;;5033203;28;20296;-64
2022/10/01 12:46:13;;;;;;;1.90;0.95;;;12.60;98.00;;;;;;5033217;28;20087;-65
2022/10/01 12:48:41;;;;;;;3.90;1.95;;;12.60;98.00;;;;;;5030653;28;20144;-64
2022/10/01 12:51:43;;;;;;;3.17;1.52;;;12.70;97.90;;;;;;5031972;28;20041;-65
2022/10/01 12:54:24;;;;;;;3.17;0.93;;;12.80;97.60;;;;;;5008753;28;20336;-64
2022/10/01 12:57:04;;;;;;;4.32;1.15;;;12.90;97.00;;;;;;5031988;28;20025;-64
2022/10/01 12:59:52;;;;;;;2.42;1.13;;;13.00;96.90;;;;;;5032716;28;20025;-64
2022/10/01 13:02:34;;;;;;;3.83;1.20;;;13.00;96.50;;;;;;5033034;28;20030;-65
2022/10/01 13:05:35;;;;;;;15.05;4.35;;;13.00;97.10;;;;;;5024694;28;20030;-64
2022/10/01 13:08:15;;;;;;;10.73;6.13;;;12.90;97.30;;;;;;5017626;28;20029;-64
2022/10/01 13:11:05;;;;;;;5.13;1.83;;;13.00;97.00;;;;;;5037115;28;20687;-64
2022/10/01 13:13:32;;;;;;;8.02;6.47;;;13.10;96.80;;;;;;5020217;28;20064;-64
2022/10/01 13:16:04;;;;;;;5.53;4.03;;;13.20;96.30;;;;;;5039751;28;20034;-65
2022/10/01 13:18:52;;;;;;;3.42;1.73;;;13.30;96.40;;;;;;5017154;28;20045;-64
2022/10/01 13:21:46;;;;;;;4.13;2.45;;;13.20;96.70;;;;;;5032364;28;20413;-64
2022/10/01 13:24:41;;;;;;;3.97;1.95;;;13.10;96.80;;;;;;5030028;28;20029;-65
2022/10/01 13:27:39;;;;;;;2.70;1.30;;;13.30;97.20;;;;;;5026790;28;20048;-65